Time;durP1;ratioP1;P1;durP2;ratioP2;P2;SDS_P1;SDS_P2;PMS_P1;PMS_P2;Temp;Humidity;BMP_temperature;BMP_pressure;BME280_temperature;BME280_humidity;BME280_pressure;Samples;Min_cycle;Max_cycle;Signal;HPM_P1;HPM_P2
2023/01/01 00:01:09;;;;;;;94.70;62.30;;;10.60;99.90;;;;;;5051983;28;20119;-45
2023/01/01 00:03:34;;;;;;;92.80;62.08;;;10.70;99.90;;;;;;5052250;28;20013;-40
2023/01/01 00:06:12;;;;;;;102.55;66.78;;;10.60;99.90;;;;;;5051830;28;20499;-41
2023/01/01 00:08:39;;;;;;;88.20;62.13;;;10.60;99.90;;;;;;5052250;28;20052;-41
2023/01/01 00:11:07;;;;;;;89.18;62.47;;;10.60;99.90;;;;;;5051909;28;20486;-45
2023/01/01 00:13:33;;;;;;;88.05;60.92;;;10.60;99.90;;;;;;5052264;28;20037;-39
2023/01/01 00:16:05;;;;;;;93.03;63.65;;;10.60;99.90;;;;;;5051716;28;20052;-44
2023/01/01 00:18:30;;;;;;;94.85;64.45;;;10.60;99.90;;;;;;5051947;28;20036;-45
2023/01/01 00:21:11;;;;;;;101.72;69.38;;;10.60;99.90;;;;;;5051707;28;20028;-45
2023/01/01 00:23:37;;;;;;;99.13;68.53;;;10.60;99.90;;;;;;5051615;28;20062;-43
2023/01/01 00:26:13;;;;;;;107.10;68.25;;;10.60;99.90;;;;;;5051477;28;20033;-44
2023/01/01 00:28:39;;;;;;;103.05;69.32;;;10.60;99.90;;;;;;5051693;28;20025;-45
2023/01/01 00:31:15;;;;;;;94.85;66.07;;;10.70;99.90;;;;;;5051807;28;20048;-41
2023/01/01 00:33:41;;;;;;;86.32;59.67;;;10.60;99.90;;;;;;5051680;28;20041;-39
2023/01/01 00:36:14;;;;;;;85.47;59.75;;;10.60;99.90;;;;;;5051453;28;20056;-37
2023/01/01 00:38:41;;;;;;;90.88;59.50;;;10.60;99.90;;;;;;5051471;28;20028;-44
2023/01/01 00:41:07;;;;;;;86.38;60.03;;;10.60;99.90;;;;;;5051100;28;20172;-44
2023/01/01 00:43:33;;;;;;;78.95;52.35;;;10.60;99.90;;;;;;5051404;28;20473;-41
2023/01/01 00:45:58;;;;;;;81.53;55.70;;;10.70;99.90;;;;;;5051156;28;20072;-41
2023/01/01 00:48:24;;;;;;;79.50;55.03;;;10.70;99.90;;;;;;5051177;28;20017;-42
2023/01/01 00:50:51;;;;;;;82.47;56.50;;;10.70;99.90;;;;;;5051228;28;20033;-45
2023/01/01 00:53:17;;;;;;;77.05;54.35;;;10.70;99.90;;;;;;5051367;28;20025;-45
2023/01/01 00:55:43;;;;;;;79.95;54.42;;;10.70;99.90;;;;;;5051160;28;20024;-40
2023/01/01 00:58:09;;;;;;;79.38;54.60;;;10.70;99.90;;;;;;5051033;28;20044;-44
2023/01/01 01:00:36;;;;;;;75.55;53.60;;;10.70;99.90;;;;;;5051671;28;20071;-43
2023/01/01 01:03:02;;;;;;;75.72;51.28;;;10.60;99.90;;;;;;5051064;28;20029;-45
2023/01/01 01:05:27;;;;;;;74.53;51.45;;;10.60;99.90;;;;;;5051189;28;20025;-40
2023/01/01 01:07:53;;;;;;;73.43;50.63;;;10.60;99.90;;;;;;5051059;28;20028;-42
2023/01/01 01:10:21;;;;;;;75.88;50.88;;;10.70;99.90;;;;;;5051232;28;20025;-42
2023/01/01 01:12:47;;;;;;;70.60;49.00;;;10.60;99.90;;;;;;5051130;28;20052;-44
2023/01/01 01:15:13;;;;;;;65.53;44.78;;;10.60;99.90;;;;;;5051060;28;20116;-42
2023/01/01 01:17:39;;;;;;;66.75;46.53;;;10.60;99.90;;;;;;5050815;28;20104;-40
2023/01/01 01:20:05;;;;;;;70.05;46.20;;;10.60;99.90;;;;;;5051080;28;20082;-44
2023/01/01 01:22:33;;;;;;;68.57;45.75;;;10.60;99.90;;;;;;5051118;28;20029;-45
2023/01/01 01:24:59;;;;;;;73.82;46.40;;;10.60;99.90;;;;;;5051005;28;20437;-39
2023/01/01 01:27:25;;;;;;;65.00;45.25;;;10.60;99.90;;;;;;5050813;28;20047;-41
2023/01/01 01:29:51;;;;;;;62.58;42.70;;;10.60;99.90;;;;;;5050958;28;20099;-44
2023/01/01 01:32:17;;;;;;;68.43;45.10;;;10.60;99.90;;;;;;5050950;28;20479;-41
2023/01/01 01:34:43;;;;;;;63.10;44.47;;;10.60;99.90;;;;;;5051196;28;20035;-40
2023/01/01 01:37:08;;;;;;;59.70;42.30;;;10.60;99.90;;;;;;5050622;28;20506;-41
2023/01/01 01:39:35;;;;;;;57.20;42.00;;;10.60;99.90;;;;;;5050785;28;20502;-38
2023/01/01 01:42:02;;;;;;;57.67;40.88;;;10.60;99.90;;;;;;5050707;28;20056;-41
2023/01/01 01:44:52;;;;;;;58.75;40.83;;;10.60;99.90;;;;;;5050815;28;20156;-45
2023/01/01 01:47:26;;;;;;;57.33;40.80;;;10.60;99.90;;;;;;5050381;28;20489;-44
2023/01/01 01:50:07;;;;;;;56.53;40.72;;;10.60;99.90;;;;;;5050823;28;20548;-44
2023/01/01 01:52:35;;;;;;;56.67;38.92;;;10.60;99.90;;;;;;5051554;28;20033;-41
2023/01/01 01:55:04;;;;;;;54.25;38.58;;;10.60;99.90;;;;;;5054551;28;20041;-44
2023/01/01 01:57:31;;;;;;;58.53;40.03;;;10.60;99.90;;;;;;5054147;28;20025;-36
2023/01/01 01:59:58;;;;;;;53.65;37.92;;;10.60;99.90;;;;;;5054440;28;20506;-42
2023/01/01 02:02:43;;;;;;;52.00;36.38;;;10.60;99.90;;;;;;5054729;28;20116;-40
2023/01/01 02:05:08;;;;;;;47.22;34.38;;;10.60;99.90;;;;;;5054422;28;20549;-44
2023/01/01 02:07:35;;;;;;;51.83;36.15;;;10.60;99.90;;;;;;5054009;28;20084;-44
2023/01/01 02:10:02;;;;;;;51.00;35.05;;;10.50;99.90;;;;;;5054619;28;20406;-44
2023/01/01 02:12:28;;;;;;;45.95;34.28;;;10.50;99.90;;;;;;5054186;28;20109;-44
2023/01/01 02:14:54;;;;;;;49.22;35.70;;;10.50;99.90;;;;;;5054301;28;20052;-41
2023/01/01 02:17:46;;;;;;;47.08;32.63;;;10.50;99.90;;;;;;5053944;28;20576;-41
2023/01/01 02:20:32;;;;;;;47.78;32.88;;;10.50;99.90;;;;;;5044138;28;20491;-40
2023/01/01 02:23:19;;;;;;;45.63;31.25;;;10.50;99.90;;;;;;5054041;28;20051;-44
2023/01/01 02:26:08;;;;;;;40.75;30.42;;;10.50;99.90;;;;;;5053807;28;20032;-40
2023/01/01 02:28:54;;;;;;;43.45;28.60;;;10.50;99.90;;;;;;5053928;28;20438;-42
2023/01/01 02:31:27;;;;;;;36.72;27.70;;;10.50;99.90;;;;;;5053892;28;20104;-42
2023/01/01 02:33:58;;;;;;;40.30;28.45;;;10.50;99.90;;;;;;5053844;28;20090;-36
2023/01/01 02:36:25;;;;;;;36.75;26.45;;;10.50;99.90;;;;;;5053487;28;20437;-41
2023/01/01 02:38:53;;;;;;;40.60;27.13;;;10.60;99.90;;;;;;5053530;28;20112;-38
2023/01/01 02:41:25;;;;;;;33.33;24.48;;;10.60;99.90;;;;;;5053425;28;20058;-36
2023/01/01 02:43:52;;;;;;;33.22;24.90;;;10.60;99.90;;;;;;5053740;28;20029;-40
2023/01/01 02:46:17;;;;;;;31.95;23.63;;;10.50;99.90;;;;;;5053295;28;20032;-44
2023/01/01 02:48:48;;;;;;;31.80;21.75;;;10.50;99.90;;;;;;5053491;28;20021;-45
2023/01/01 02:51:33;;;;;;;27.88;21.13;;;10.50;99.90;;;;;;5053434;28;20112;-44
2023/01/01 02:54:05;;;;;;;26.80;19.60;;;10.50;99.90;;;;;;5053353;28;20422;-41
2023/01/01 02:56:44;;;;;;;25.75;19.33;;;10.50;99.90;;;;;;5052933;28;20403;-40
2023/01/01 03:02:04;;;;;;;26.17;19.27;;;10.60;99.90;;;;;;5053179;28;20072;-38
2023/01/01 03:04:47;;;;;;;24.85;18.45;;;10.50;99.90;;;;;;5052826;28;20032;-41
2023/01/01 03:07:30;;;;;;;25.38;18.65;;;10.50;99.90;;;;;;5052870;28;20029;-37
2023/01/01 03:10:01;;;;;;;23.95;17.40;;;10.50;99.90;;;;;;5053260;28;20074;-42
2023/01/01 03:12:42;;;;;;;23.15;16.67;;;10.50;99.90;;;;;;5053127;28;20036;-41
2023/01/01 03:15:36;;;;;;;22.55;15.55;;;10.50;99.90;;;;;;5053090;28;20029;-44
2023/01/01 03:18:07;;;;;;;21.10;15.35;;;10.50;99.90;;;;;;5052742;28;20033;-40
2023/01/01 03:20:38;;;;;;;20.33;14.77;;;10.50;99.90;;;;;;5052943;28;20017;-41
2023/01/01 03:23:08;;;;;;;21.85;14.07;;;10.50;99.90;;;;;;5053298;28;20424;-45
2023/01/01 03:25:41;;;;;;;19.65;14.10;;;10.50;99.90;;;;;;5052828;28;20025;-41
2023/01/01 03:28:15;;;;;;;17.38;13.60;;;10.50;99.90;;;;;;5052627;28;20029;-39
2023/01/01 03:30:44;;;;;;;16.85;13.10;;;10.50;99.90;;;;;;5052997;28;20025;-44
2023/01/01 03:33:21;;;;;;;17.92;12.80;;;10.50;99.90;;;;;;5052798;28;20033;-44
2023/01/01 03:35:56;;;;;;;16.90;12.07;;;10.50;99.90;;;;;;5052456;28;20033;-45
2023/01/01 03:38:30;;;;;;;16.50;11.35;;;10.60;99.90;;;;;;5052465;28;20537;-41
2023/01/01 03:41:19;;;;;;;16.85;10.93;;;10.50;99.90;;;;;;5052505;28;20529;-38
2023/01/01 03:43:58;;;;;;;16.33;11.85;;;10.60;99.90;;;;;;5052252;28;20069;-40
2023/01/01 03:46:28;;;;;;;15.35;10.32;;;10.60;99.90;;;;;;5052123;28;20029;-44
2023/01/01 03:48:57;;;;;;;16.80;10.95;;;10.50;99.90;;;;;;5052465;28;20021;-40
2023/01/01 03:51:42;;;;;;;14.27;9.93;;;10.60;99.90;;;;;;5052387;28;20112;-41
2023/01/01 03:54:32;;;;;;;14.85;9.73;;;10.60;99.90;;;;;;5052322;28;20025;-45
2023/01/01 03:57:24;;;;;;;14.43;9.40;;;10.50;99.90;;;;;;5052042;28;20031;-41
2023/01/01 04:00:08;;;;;;;13.70;9.15;;;10.60;99.90;;;;;;5052211;28;20028;-45
2023/01/01 04:02:39;;;;;;;17.80;9.40;;;10.50;99.90;;;;;;5052072;28;20040;-42
2023/01/01 04:05:06;;;;;;;12.90;8.77;;;10.50;99.90;;;;;;5052363;28;20351;-44
2023/01/01 04:07:32;;;;;;;11.98;8.95;;;10.50;99.90;;;;;;5052037;28;20520;-41
2023/01/01 04:10:01;;;;;;;11.73;8.43;;;10.50;99.90;;;;;;5051971;28;20032;-36
2023/01/01 04:12:28;;;;;;;11.80;8.43;;;10.50;99.90;;;;;;5052064;28;20108;-45
2023/01/01 04:14:54;;;;;;;13.43;8.20;;;10.50;99.90;;;;;;5051188;28;20409;-41
2023/01/01 04:17:19;;;;;;;10.50;7.60;;;10.50;99.90;;;;;;5051502;28;20021;-45
2023/01/01 04:19:45;;;;;;;10.98;8.00;;;10.50;99.90;;;;;;5051804;28;20391;-45
2023/01/01 04:22:11;;;;;;;10.60;7.43;;;10.50;99.90;;;;;;5051726;28;20095;-45
2023/01/01 04:24:36;;;;;;;10.35;7.65;;;10.50;99.90;;;;;;5051814;28;20099;-44
2023/01/01 04:27:03;;;;;;;12.65;7.93;;;10.50;99.90;;;;;;5051479;28;20417;-37
2023/01/01 04:29:29;;;;;;;10.82;7.45;;;10.50;99.90;;;;;;5051574;28;20074;-40
2023/01/01 04:31:54;;;;;;;9.95;7.10;;;10.50;99.90;;;;;;5051499;28;20024;-41
2023/01/01 04:34:20;;;;;;;8.95;6.90;;;10.50;99.90;;;;;;5051797;28;20102;-43
2023/01/01 04:36:45;;;;;;;9.60;7.07;;;10.50;99.90;;;;;;5051163;28;20577;-44
2023/01/01 04:39:11;;;;;;;9.52;6.95;;;10.50;99.90;;;;;;5051444;28;20048;-44
2023/01/01 04:41:36;;;;;;;8.63;6.47;;;10.50;99.90;;;;;;5051396;28;20028;-41
2023/01/01 04:44:02;;;;;;;8.93;6.35;;;10.50;99.90;;;;;;5051352;28;20024;-38
2023/01/01 04:46:28;;;;;;;10.98;6.75;;;10.50;99.90;;;;;;5050987;28;20429;-41
2023/01/01 04:48:53;;;;;;;8.70;6.20;;;10.50;99.90;;;;;;5051214;28;20060;-41
2023/01/01 04:51:20;;;;;;;9.43;6.32;;;10.50;99.90;;;;;;5051381;28;20029;-41
2023/01/01 04:53:46;;;;;;;8.57;5.82;;;10.50;99.90;;;;;;5051480;28;20077;-40
2023/01/01 04:56:13;;;;;;;9.18;6.00;;;10.50;99.90;;;;;;5051063;28;20499;-41
2023/01/01 04:58:40;;;;;;;8.18;5.75;;;10.50;99.90;;;;;;5051129;28;20043;-38
2023/01/01 05:01:07;;;;;;;9.02;5.97;;;10.50;99.90;;;;;;5051084;28;20024;-41
2023/01/01 05:03:33;;;;;;;6.70;4.90;;;10.50;99.90;;;;;;5051131;28;20028;-44
2023/01/01 05:06:03;;;;;;;7.68;5.22;;;10.50;99.90;;;;;;5050950;28;20390;-45
2023/01/01 05:08:30;;;;;;;8.88;5.22;;;10.50;99.90;;;;;;5051080;28;20037;-43
2023/01/01 05:11:07;;;;;;;6.90;4.82;;;10.50;99.90;;;;;;5051086;28;20108;-45
2023/01/01 05:13:34;;;;;;;7.43;4.93;;;10.50;99.90;;;;;;5051079;28;20029;-45
2023/01/01 05:16:04;;;;;;;6.03;4.32;;;10.50;99.90;;;;;;5050906;28;20131;-43
2023/01/01 05:18:30;;;;;;;7.20;4.40;;;10.50;99.90;;;;;;5050947;28;20021;-45
2023/01/01 05:21:23;;;;;;;8.05;4.82;;;10.50;99.90;;;;;;5050916;28;20357;-41
2023/01/01 05:23:54;;;;;;;7.55;4.65;;;10.50;99.90;;;;;;5049933;28;20116;-41
2023/01/01 05:26:22;;;;;;;6.93;4.47;;;10.50;99.90;;;;;;5051479;28;20017;-44
2023/01/01 05:28:48;;;;;;;8.75;4.38;;;10.50;99.90;;;;;;5054946;28;20028;-44
2023/01/01 05:31:16;;;;;;;5.63;3.88;;;10.50;99.90;;;;;;5054948;28;20029;-44
2023/01/01 05:33:42;;;;;;;6.85;4.20;;;10.50;99.90;;;;;;5054833;28;20029;-44
2023/01/01 05:36:14;;;;;;;5.95;3.90;;;10.50;99.90;;;;;;5054592;28;20087;-44
2023/01/01 05:38:40;;;;;;;6.30;3.60;;;10.50;99.90;;;;;;5054767;28;20017;-45
2023/01/01 05:41:07;;;;;;;4.55;3.55;;;10.50;99.90;;;;;;5054696;28;20028;-40
2023/01/01 05:43:33;;;;;;;5.07;3.50;;;10.50;99.90;;;;;;5054700;28;20024;-44
2023/01/01 05:46:04;;;;;;;6.35;3.42;;;10.50;99.90;;;;;;5054522;28;20021;-38
2023/01/01 05:48:30;;;;;;;6.30;3.80;;;10.50;99.90;;;;;;5054603;28;20036;-40
2023/01/01 05:51:09;;;;;;;5.50;3.22;;;10.50;99.90;;;;;;5054603;28;20028;-40
2023/01/01 05:53:35;;;;;;;6.63;3.67;;;10.50;99.90;;;;;;5054569;28;20045;-39
2023/01/01 05:56:01;;;;;;;6.45;3.67;;;10.40;99.90;;;;;;5054210;28;20112;-41
2023/01/01 05:58:28;;;;;;;8.80;3.58;;;10.50;99.90;;;;;;5054108;28;20048;-38
2023/01/01 06:00:54;;;;;;;5.63;4.03;;;10.50;99.90;;;;;;5054518;28;20391;-41
2023/01/01 06:03:21;;;;;;;5.57;3.35;;;10.50;99.90;;;;;;5054248;28;20561;-36
2023/01/01 06:05:47;;;;;;;5.25;3.47;;;10.40;99.90;;;;;;5054182;28;20077;-41
2023/01/01 06:08:12;;;;;;;5.95;3.55;;;10.40;99.90;;;;;;5054185;28;20052;-38
2023/01/01 06:10:38;;;;;;;4.82;3.72;;;10.40;99.90;;;;;;5054227;28;20100;-40
2023/01/01 06:13:04;;;;;;;6.68;3.72;;;10.40;99.90;;;;;;5054059;28;20052;-44
2023/01/01 06:15:30;;;;;;;8.13;4.10;;;10.40;99.90;;;;;;5054456;28;20033;-45
2023/01/01 06:17:57;;;;;;;4.95;3.35;;;10.40;99.90;;;;;;5053817;28;20033;-45
2023/01/01 06:20:23;;;;;;;6.43;3.95;;;10.40;99.90;;;;;;5054100;28;20391;-45
2023/01/01 06:22:49;;;;;;;5.88;4.10;;;10.40;99.90;;;;;;5053985;28;20044;-40
2023/01/01 06:25:15;;;;;;;5.50;3.65;;;10.40;99.90;;;;;;5053932;28;20053;-40
2023/01/01 06:27:40;;;;;;;5.38;4.05;;;10.40;99.90;;;;;;5053511;28;20033;-44
2023/01/01 06:30:07;;;;;;;6.70;3.85;;;10.40;99.90;;;;;;5053964;28;20104;-42
2023/01/01 06:32:32;;;;;;;8.07;4.35;;;10.40;99.90;;;;;;5054002;28;20021;-40
2023/01/01 06:34:58;;;;;;;7.72;3.72;;;10.40;99.90;;;;;;5054053;28;20386;-45
2023/01/01 06:37:26;;;;;;;6.72;4.03;;;10.40;99.90;;;;;;5053406;28;20478;-45
2023/01/01 06:39:51;;;;;;;8.02;4.47;;;10.40;99.90;;;;;;5053150;28;20115;-42
2023/01/01 06:42:17;;;;;;;6.63;4.18;;;10.40;99.90;;;;;;5053440;28;20574;-44
2023/01/01 06:44:43;;;;;;;8.82;4.03;;;10.40;99.90;;;;;;5053579;28;20028;-45
2023/01/01 06:47:08;;;;;;;8.30;4.90;;;10.40;99.90;;;;;;5053233;28;20360;-45
2023/01/01 06:49:34;;;;;;;8.27;4.72;;;10.40;99.90;;;;;;5053520;28;20092;-43
2023/01/01 06:51:59;;;;;;;6.90;4.68;;;10.40;99.90;;;;;;5053439;28;20387;-39
2023/01/01 06:54:25;;;;;;;9.55;4.50;;;10.40;99.90;;;;;;5053378;28;20062;-37
2023/01/01 06:56:50;;;;;;;11.20;5.10;;;10.40;99.90;;;;;;5052979;28;20108;-39
2023/01/01 06:59:16;;;;;;;8.57;4.95;;;10.40;99.90;;;;;;5053464;28;20028;-44
2023/01/01 07:01:42;;;;;;;9.90;4.63;;;10.40;99.90;;;;;;5053159;28;20029;-40
2023/01/01 07:04:11;;;;;;;7.28;4.70;;;10.40;99.90;;;;;;5053219;28;20028;-44
2023/01/01 07:06:37;;;;;;;7.13;4.90;;;10.40;99.90;;;;;;5052847;28;20103;-44
2023/01/01 07:09:05;;;;;;;10.07;5.00;;;10.40;99.90;;;;;;5053140;28;20112;-44
2023/01/01 07:11:31;;;;;;;6.95;4.75;;;10.40;99.90;;;;;;5053060;28;20033;-42
2023/01/01 07:13:56;;;;;;;11.98;4.82;;;10.40;99.90;;;;;;5053062;28;20021;-45
2023/01/01 07:16:23;;;;;;;9.23;4.93;;;10.40;99.90;;;;;;5052785;28;20259;-40
2023/01/01 07:18:49;;;;;;;7.63;4.72;;;10.40;99.90;;;;;;5052838;28;20112;-42
2023/01/01 07:21:40;;;;;;;8.77;4.82;;;10.40;99.90;;;;;;5052803;28;20457;-42
2023/01/01 07:24:10;;;;;;;8.15;5.22;;;10.30;99.90;;;;;;5052909;28;20102;-42
2023/01/01 07:26:36;;;;;;;7.60;4.57;;;10.30;99.90;;;;;;5052533;28;20017;-44
2023/01/01 07:29:02;;;;;;;8.27;4.55;;;10.40;99.90;;;;;;5052821;28;20017;-41
2023/01/01 07:31:27;;;;;;;7.93;5.20;;;10.30;99.90;;;;;;5052728;28;20033;-40
2023/01/01 07:33:53;;;;;;;11.48;4.75;;;10.40;99.90;;;;;;5052703;28;20020;-40
2023/01/01 07:36:19;;;;;;;9.45;5.07;;;10.40;99.90;;;;;;5052337;28;20032;-44
2023/01/01 07:38:44;;;;;;;8.93;4.55;;;10.30;99.90;;;;;;5052627;28;20029;-44
2023/01/01 07:41:10;;;;;;;10.18;5.18;;;10.40;99.90;;;;;;5052728;28;20033;-43
2023/01/01 07:43:36;;;;;;;8.85;4.72;;;10.40;99.90;;;;;;5052520;28;20086;-40
2023/01/01 07:46:02;;;;;;;8.40;5.07;;;10.30;99.90;;;;;;5052153;28;20025;-36
2023/01/01 07:48:28;;;;;;;7.85;4.80;;;10.30;99.90;;;;;;5052324;28;20074;-41
2023/01/01 07:50:54;;;;;;;8.35;5.13;;;10.30;99.90;;;;;;5051214;28;20029;-40
2023/01/01 07:53:19;;;;;;;7.50;5.18;;;10.30;99.90;;;;;;5052320;28;20023;-39
2023/01/01 07:55:45;;;;;;;12.82;5.25;;;10.30;99.90;;;;;;5052007;28;20562;-44
2023/01/01 07:58:11;;;;;;;9.43;5.57;;;10.30;99.90;;;;;;5052287;28;20391;-44
2023/01/01 08:00:37;;;;;;;7.68;4.93;;;10.30;99.90;;;;;;5052136;28;20117;-44
2023/01/01 08:03:04;;;;;;;8.98;5.15;;;10.40;99.90;;;;;;5052052;28;20510;-44
2023/01/01 08:05:30;;;;;;;8.18;4.93;;;10.30;99.90;;;;;;5052033;28;20048;-45
2023/01/01 08:07:56;;;;;;;6.07;4.45;;;10.30;99.90;;;;;;5051786;28;20467;-44
2023/01/01 08:10:22;;;;;;;8.77;5.18;;;10.40;99.90;;;;;;5051988;28;20039;-39
2023/01/01 08:12:47;;;;;;;7.63;5.50;;;10.40;99.90;;;;;;5052257;28;20131;-41
2023/01/01 08:15:14;;;;;;;8.05;4.90;;;10.30;99.90;;;;;;5051882;28;20517;-39
2023/01/01 08:17:40;;;;;;;8.07;5.22;;;10.40;99.90;;;;;;5052058;28;20036;-41
2023/01/01 08:20:06;;;;;;;8.25;5.22;;;10.30;99.90;;;;;;5051676;28;20021;-45
2023/01/01 08:22:32;;;;;;;9.18;4.97;;;10.30;99.90;;;;;;5051826;28;20188;-43
2023/01/01 08:24:57;;;;;;;8.10;5.25;;;10.30;99.90;;;;;;5051783;28;20107;-42
2023/01/01 08:27:23;;;;;;;7.25;4.93;;;10.40;99.90;;;;;;5051559;28;20041;-43
2023/01/01 08:29:49;;;;;;;8.82;5.10;;;10.30;99.90;;;;;;5051806;28;20497;-42
2023/01/01 08:32:14;;;;;;;8.98;5.22;;;10.40;99.90;;;;;;5051719;28;20033;-40
2023/01/01 08:34:40;;;;;;;7.68;5.47;;;10.40;99.90;;;;;;5051484;28;20094;-45
2023/01/01 08:37:10;;;;;;;7.72;5.25;;;10.40;99.90;;;;;;5051232;28;20029;-44
2023/01/01 08:39:35;;;;;;;8.98;5.25;;;10.40;99.90;;;;;;5051576;28;20090;-45
2023/01/01 08:42:01;;;;;;;9.85;5.60;;;10.40;99.90;;;;;;5051394;28;20029;-42
2023/01/01 08:44:26;;;;;;;9.75;5.50;;;10.40;99.90;;;;;;5051447;28;20032;-41
2023/01/01 08:46:52;;;;;;;7.07;5.25;;;10.40;99.90;;;;;;5051095;28;20021;-42
2023/01/01 08:49:18;;;;;;;6.65;4.95;;;10.40;99.90;;;;;;5051312;28;20025;-38
2023/01/01 08:51:43;;;;;;;6.68;5.00;;;10.40;99.90;;;;;;5051742;28;20024;-40
2023/01/01 08:54:09;;;;;;;7.63;4.72;;;10.40;99.90;;;;;;5051230;28;20025;-44
2023/01/01 08:56:36;;;;;;;7.72;4.78;;;10.40;99.90;;;;;;5050985;28;20482;-40
2023/01/01 08:59:02;;;;;;;10.27;5.10;;;10.40;99.90;;;;;;5051279;28;20036;-42
2023/01/01 09:01:28;;;;;;;9.90;5.55;;;10.40;99.90;;;;;;5050786;28;20040;-44
2023/01/01 09:03:53;;;;;;;8.70;5.35;;;10.50;99.90;;;;;;5051584;28;20379;-42
2023/01/01 09:06:19;;;;;;;8.13;5.22;;;10.50;99.90;;;;;;5050938;28;20024;-45
2023/01/01 09:08:45;;;;;;;6.10;4.13;;;10.50;99.90;;;;;;5050998;28;20083;-44
2023/01/01 09:11:23;;;;;;;7.85;5.13;;;10.50;99.90;;;;;;5051149;28;20112;-38
2023/01/01 09:13:49;;;;;;;7.80;5.10;;;10.50;99.90;;;;;;5051136;28;20513;-44
2023/01/01 09:16:15;;;;;;;8.48;5.00;;;10.60;99.90;;;;;;5050781;28;20723;-44
2023/01/01 09:18:40;;;;;;;6.85;4.38;;;10.60;99.90;;;;;;5050980;28;20025;-45
2023/01/01 09:21:06;;;;;;;8.73;4.85;;;10.60;99.90;;;;;;5050982;28;20021;-43
2023/01/01 09:23:31;;;;;;;8.50;5.10;;;10.70;99.90;;;;;;5051006;28;20052;-43
2023/01/01 09:26:08;;;;;;;8.32;5.25;;;10.70;99.90;;;;;;5050830;28;20438;-45
2023/01/01 09:28:35;;;;;;;10.27;5.10;;;10.70;99.90;;;;;;5050869;28;20025;-40
2023/01/01 09:31:00;;;;;;;7.20;4.70;;;10.70;99.90;;;;;;5051016;28;20545;-42
2023/01/01 09:33:27;;;;;;;5.97;4.45;;;10.80;99.90;;;;;;5051023;28;20067;-42
2023/01/01 09:35:53;;;;;;;10.32;5.65;;;10.80;99.90;;;;;;5050922;28;20028;-44
2023/01/01 09:38:19;;;;;;;10.45;5.07;;;10.80;99.90;;;;;;5050821;28;20021;-40
2023/01/01 09:40:53;;;;;;;6.63;4.55;;;10.80;99.90;;;;;;5050929;28;20025;-44
2023/01/01 09:43:37;;;;;;;8.27;5.07;;;10.90;99.90;;;;;;5050818;28;20035;-41
2023/01/01 09:46:06;;;;;;;6.28;4.43;;;10.90;99.90;;;;;;5050775;28;20437;-44
2023/01/01 09:48:34;;;;;;;8.10;5.25;;;10.90;99.90;;;;;;5050819;28;20037;-43
2023/01/01 09:51:04;;;;;;;8.18;4.80;;;10.90;99.90;;;;;;5050824;28;20291;-45
2023/01/01 09:53:49;;;;;;;8.00;5.10;;;10.90;99.90;;;;;;5050737;28;20021;-40
2023/01/01 09:56:24;;;;;;;7.45;4.97;;;10.90;99.90;;;;;;5050149;28;20079;-42
2023/01/01 09:58:50;;;;;;;7.20;4.85;;;10.90;99.90;;;;;;5050740;28;20068;-40
2023/01/01 10:01:23;;;;;;;8.73;5.43;;;10.90;99.90;;;;;;5050568;28;20048;-39
2023/01/01 10:03:48;;;;;;;6.20;4.50;;;10.90;99.90;;;;;;5050850;28;20615;-40
2023/01/01 10:06:28;;;;;;;8.88;5.28;;;10.90;99.90;;;;;;5050365;28;20025;-45
2023/01/01 10:09:15;;;;;;;7.90;4.93;;;11.00;99.90;;;;;;5050663;28;20028;-40
2023/01/01 10:11:54;;;;;;;6.32;4.45;;;11.00;99.90;;;;;;5050661;28;20029;-40
2023/01/01 10:14:27;;;;;;;7.75;4.80;;;11.00;99.90;;;;;;5052864;28;20025;-40
2023/01/01 10:16:55;;;;;;;7.28;4.80;;;11.00;99.90;;;;;;5053984;28;20054;-40
2023/01/01 10:19:27;;;;;;;6.88;4.45;;;11.00;99.90;;;;;;5054143;28;20490;-40
2023/01/01 10:21:58;;;;;;;7.90;5.00;;;11.00;99.90;;;;;;5053984;28;20048;-44
2023/01/01 10:24:54;;;;;;;10.02;5.20;;;11.00;99.90;;;;;;5054372;28;20098;-43
2023/01/01 10:27:44;;;;;;;6.93;4.70;;;11.00;99.90;;;;;;5052693;28;20037;-43
2023/01/01 10:30:28;;;;;;;6.85;4.68;;;11.00;99.90;;;;;;5053969;28;20548;-40
2023/01/01 10:32:56;;;;;;;8.52;4.75;;;11.10;99.90;;;;;;5053989;28;20044;-43
2023/01/01 10:35:33;;;;;;;9.52;5.13;;;11.10;99.90;;;;;;5053855;28;20475;-40
2023/01/01 10:38:00;;;;;;;9.38;5.03;;;11.10;99.90;;;;;;5053664;28;20037;-39
2023/01/01 10:40:28;;;;;;;8.65;5.10;;;11.10;99.90;;;;;;5053710;28;20024;-38
2023/01/01 10:42:55;;;;;;;7.57;4.95;;;11.10;99.90;;;;;;5053682;28;20411;-42
2023/01/01 10:45:33;;;;;;;11.15;5.47;;;11.10;99.90;;;;;;5053716;28;20025;-43
2023/01/01 10:48:13;;;;;;;8.55;4.93;;;11.10;99.90;;;;;;5053376;28;20017;-44
2023/01/01 10:50:47;;;;;;;8.52;5.32;;;11.20;99.90;;;;;;5053467;28;20026;-40
2023/01/01 10:53:48;;;;;;;9.55;5.85;;;11.10;99.90;;;;;;5053512;28;20023;-44
2023/01/01 10:56:15;;;;;;;7.97;5.15;;;11.20;99.90;;;;;;5053220;28;20131;-45
2023/01/01 10:58:44;;;;;;;9.15;5.40;;;11.20;99.90;;;;;;5053247;28;20073;-42
2023/01/01 11:01:32;;;;;;;9.50;5.65;;;11.20;99.90;;;;;;5053482;28;20037;-41
2023/01/01 11:04:07;;;;;;;8.70;5.28;;;11.20;99.90;;;;;;5053471;28;20471;-39
2023/01/01 11:06:38;;;;;;;7.70;5.35;;;11.20;99.90;;;;;;5052944;28;20029;-44
2023/01/01 11:09:25;;;;;;;8.25;5.22;;;11.20;99.90;;;;;;5053330;28;20114;-41
2023/01/01 11:12:06;;;;;;;9.60;5.20;;;11.20;99.90;;;;;;5052934;28;20029;-41
2023/01/01 11:14:38;;;;;;;8.35;5.32;;;11.20;99.90;;;;;;5053139;28;20402;-45
2023/01/01 11:17:05;;;;;;;9.75;5.38;;;11.20;99.90;;;;;;5052764;28;20494;-45
2023/01/01 11:19:40;;;;;;;6.88;4.82;;;11.20;99.90;;;;;;5052946;28;20040;-43
2023/01/01 11:22:06;;;;;;;6.60;4.95;;;11.20;99.90;;;;;;5052814;28;20031;-42
2023/01/01 11:24:33;;;;;;;8.63;5.07;;;11.20;99.90;;;;;;5052691;28;20027;-43
2023/01/01 11:27:20;;;;;;;8.93;5.32;;;11.20;99.90;;;;;;5052594;28;20032;-44
2023/01/01 11:29:46;;;;;;;7.35;5.10;;;11.20;99.90;;;;;;5052840;28;20121;-44
2023/01/01 11:32:22;;;;;;;7.18;4.90;;;11.30;99.90;;;;;;5052662;28;20526;-41
2023/01/01 11:35:01;;;;;;;8.32;4.55;;;11.30;99.90;;;;;;5052815;28;20028;-45
2023/01/01 11:37:32;;;;;;;7.63;5.28;;;11.30;99.90;;;;;;5052459;28;20028;-42
2023/01/01 11:40:00;;;;;;;7.55;4.82;;;11.30;99.90;;;;;;5052610;28;20025;-45
2023/01/01 11:42:31;;;;;;;8.20;5.50;;;11.30;99.90;;;;;;5052451;28;20134;-44
2023/01/01 11:45:00;;;;;;;12.48;5.22;;;11.30;99.90;;;;;;5052639;28;20098;-41
2023/01/01 11:47:38;;;;;;;8.75;5.18;;;11.30;99.90;;;;;;5052421;28;20028;-44
2023/01/01 11:50:13;;;;;;;8.30;4.80;;;11.30;99.90;;;;;;5052520;28;20540;-41
2023/01/01 11:52:44;;;;;;;8.98;5.68;;;11.20;99.90;;;;;;5052475;28;20084;-41
2023/01/01 11:55:23;;;;;;;8.40;5.32;;;11.20;99.90;;;;;;5052097;28;20045;-41
2023/01/01 11:58:24;;;;;;;10.32;5.32;;;11.20;99.90;;;;;;5052040;28;20059;-39
2023/01/01 12:00:54;;;;;;;8.43;4.65;;;11.20;99.90;;;;;;5036230;28;20407;-41
2023/01/01 12:03:29;;;;;;;6.38;4.65;;;11.20;99.90;;;;;;5051987;28;20031;-45
2023/01/01 12:06:02;;;;;;;8.02;4.90;;;11.20;99.90;;;;;;5051874;28;20025;-45
2023/01/01 12:08:38;;;;;;;10.68;5.18;;;11.10;99.90;;;;;;5051950;28;20044;-40
2023/01/01 12:11:19;;;;;;;9.32;4.53;;;11.20;99.90;;;;;;5052078;28;20152;-44
2023/01/01 12:14:13;;;;;;;7.68;4.88;;;11.20;99.90;;;;;;5051904;28;20033;-44
2023/01/01 12:16:49;;;;;;;6.82;4.50;;;11.20;99.90;;;;;;5040254;28;20403;-44
2023/01/01 12:19:25;;;;;;;7.38;4.68;;;11.20;99.90;;;;;;5051991;28;20021;-44
2023/01/01 12:21:56;;;;;;;9.05;4.72;;;11.20;99.90;;;;;;5051806;28;20025;-44
2023/01/01 12:24:24;;;;;;;8.35;4.43;;;11.20;99.90;;;;;;5051626;28;20777;-40
2023/01/01 12:26:55;;;;;;;6.15;4.40;;;11.20;99.90;;;;;;5051432;28;20024;-40
2023/01/01 12:29:52;;;;;;;9.20;4.40;;;11.20;99.90;;;;;;5051716;28;20024;-44
2023/01/01 12:32:38;;;;;;;7.55;4.60;;;11.20;99.90;;;;;;5051983;28;20383;-41
2023/01/01 12:35:18;;;;;;;7.80;4.20;;;11.10;99.90;;;;;;5051691;28;20494;-44
2023/01/01 12:38:02;;;;;;;8.55;4.18;;;11.20;99.90;;;;;;5050779;28;20025;-39
2023/01/01 12:40:36;;;;;;;9.50;4.20;;;11.20;99.90;;;;;;5051573;28;20025;-39
2023/01/01 12:43:29;;;;;;;8.63;4.75;;;11.20;99.90;;;;;;5051381;28;20040;-42
2023/01/01 12:46:12;;;;;;;9.02;4.95;;;11.20;99.90;;;;;;5051489;28;20029;-43
2023/01/01 12:49:04;;;;;;;8.63;4.75;;;11.20;99.90;;;;;;5051614;28;20071;-44
2023/01/01 12:51:58;;;;;;;9.27;4.75;;;11.20;99.90;;;;;;5051378;28;20155;-43
2023/01/01 12:54:38;;;;;;;7.35;3.97;;;11.20;99.90;;;;;;5051241;28;20021;-40
2023/01/01 12:57:30;;;;;;;13.02;4.60;;;11.20;99.90;;;;;;5050978;28;20364;-38
2023/01/01 12:59:59;;;;;;;8.32;4.22;;;11.10;99.90;;;;;;5051278;28;20056;-42
2023/01/01 13:02:29;;;;;;;8.52;4.50;;;11.20;99.90;;;;;;5051192;28;20036;-44